createdAt,value
2022-11-04T00:02:14.373Z,10.63
2022-11-04T00:04:44.051Z,9.55
2022-11-04T00:07:26.196Z,8.60
2022-11-04T00:09:54.644Z,10.85
2022-11-04T00:12:27.652Z,15.65
2022-11-04T00:15:15.930Z,11.73
2022-11-04T00:17:43.191Z,11.88
2022-11-04T00:20:30.409Z,17.20
2022-11-04T00:23:17.047Z,10.60
2022-11-04T00:26:02.649Z,11.02
2022-11-04T00:28:45.786Z,13.93
2022-11-04T00:31:31.145Z,6.85
2022-11-04T00:34:00.720Z,11.25
2022-11-04T00:36:30.351Z,10.60
2022-11-04T00:38:59.094Z,12.15
2022-11-04T00:41:28.217Z,9.63
2022-11-04T00:43:58.341Z,9.68
2022-11-04T00:46:27.076Z,10.38
2022-11-04T00:48:55.315Z,12.90
2022-11-04T00:51:23.557Z,12.68
2022-11-04T00:53:53.453Z,14.38
2022-11-04T00:56:21.865Z,11.18
2022-11-04T00:58:51.136Z,13.38
2022-11-04T01:01:20.280Z,11.18
2022-11-04T01:03:50.291Z,11.77
2022-11-04T01:06:19.535Z,9.50
2022-11-04T01:08:48.185Z,11.35
2022-11-04T01:11:17.846Z,9.15
2022-11-04T01:13:46.086Z,7.68
2022-11-04T01:16:14.390Z,8.77
2022-11-04T01:18:43.040Z,9.68
2022-11-04T01:21:14.386Z,11.23
2022-11-04T01:23:43.783Z,6.82
2022-11-04T01:26:14.304Z,9.50
2022-11-04T01:28:44.343Z,8.82
2022-11-04T01:31:15.079Z,9.02
2022-11-04T01:33:43.530Z,8.75
2022-11-04T01:36:12.868Z,9.48
2022-11-04T01:38:41.596Z,8.75
2022-11-04T01:41:10.672Z,10.57
2022-11-04T01:43:49.675Z,12.32
2022-11-04T01:46:29.350Z,11.90
2022-11-04T01:49:02.906Z,9.75
2022-11-04T01:51:33.928Z,10.80
2022-11-04T01:54:03.641Z,11.57
2022-11-04T01:56:33.059Z,12.80
2022-11-04T01:59:07.599Z,11.07
2022-11-04T02:01:36.421Z,9.60
2022-11-04T02:04:18.860Z,13.23
2022-11-04T02:06:48.880Z,10.80
2022-11-04T02:09:19.867Z,11.68
2022-11-04T02:12:05.215Z,13.35
2022-11-04T02:14:37.123Z,13.68
2022-11-04T02:17:16.855Z,8.30
2022-11-04T02:20:03.828Z,10.52
2022-11-04T02:23:05.589Z,12.90
2022-11-04T02:25:56.358Z,7.13
2022-11-04T02:28:52.538Z,7.63
2022-11-04T02:31:31.264Z,7.57
2022-11-04T02:34:08.124Z,10.20
2022-11-04T02:36:43.834Z,11.10
2022-11-04T02:39:24.237Z,9.90
2022-11-04T02:41:59.059Z,6.55
2022-11-04T02:44:34.000Z,10.43
2022-11-04T02:47:08.310Z,8.38
2022-11-04T02:49:42.253Z,8.65
2022-11-04T02:52:13.585Z,12.40
2022-11-04T02:54:47.667Z,10.95
2022-11-04T02:57:21.372Z,9.73
2022-11-04T02:59:54.774Z,9.68
2022-11-04T03:02:29.043Z,10.50
2022-11-04T03:04:59.572Z,6.97
2022-11-04T03:07:32.723Z,12.80
2022-11-04T03:10:03.860Z,7.55
2022-11-04T03:12:37.260Z,11.05
2022-11-04T03:15:10.205Z,12.18
2022-11-04T03:17:45.717Z,9.85
2022-11-04T03:20:19.462Z,8.23
2022-11-04T03:22:48.094Z,11.05
2022-11-04T03:25:16.990Z,10.65
2022-11-04T03:27:48.783Z,11.50
2022-11-04T03:30:19.260Z,9.10
2022-11-04T03:32:58.867Z,10.00
2022-11-04T03:35:27.798Z,9.88
2022-11-04T03:37:56.513Z,13.13
2022-11-04T03:40:25.837Z,9.90
2022-11-04T03:42:58.597Z,15.00
2022-11-04T03:45:27.435Z,9.40
2022-11-04T03:47:57.994Z,11.63
2022-11-04T03:50:30.347Z,12.93
2022-11-04T03:53:00.164Z,13.60
2022-11-04T03:55:41.333Z,7.75
2022-11-04T03:58:18.679Z,9.93
2022-11-04T04:00:53.216Z,9.88
2022-11-04T04:03:26.804Z,15.23
2022-11-04T04:06:00.118Z,13.15
2022-11-04T04:08:36.899Z,11.27
2022-11-04T04:11:13.541Z,14.75
2022-11-04T04:13:47.333Z,14.73
2022-11-04T04:16:23.268Z,11.13
2022-11-04T04:18:58.981Z,9.15
2022-11-04T04:21:31.894Z,14.45
2022-11-04T04:24:20.913Z,18.73
2022-11-04T04:27:09.632Z,11.18
2022-11-04T04:29:39.015Z,13.55
2022-11-04T04:32:08.765Z,11.02
2022-11-04T04:34:38.720Z,16.33
2022-11-04T04:37:10.335Z,13.02
2022-11-04T04:39:59.196Z,14.07
2022-11-04T04:42:46.431Z,14.93
2022-11-04T04:45:23.021Z,14.68
2022-11-04T04:47:51.412Z,17.85
2022-11-04T04:50:22.839Z,14.35
2022-11-04T04:52:53.496Z,11.35
2022-11-04T04:55:21.789Z,10.18
2022-11-04T04:57:50.220Z,17.02
2022-11-04T05:00:21.525Z,12.68
2022-11-04T05:02:50.455Z,14.57
2022-11-04T05:05:20.522Z,13.27
2022-11-04T05:07:49.173Z,13.82
2022-11-04T05:10:18.887Z,14.05
2022-11-04T05:13:05.721Z,12.65
2022-11-04T05:15:34.023Z,16.40
2022-11-04T05:18:03.837Z,15.75
2022-11-04T05:20:35.032Z,11.55
2022-11-04T05:23:03.447Z,13.10
2022-11-04T05:25:31.877Z,12.57
2022-11-04T05:28:02.104Z,15.27
2022-11-04T05:30:30.835Z,14.90
2022-11-04T05:33:03.391Z,8.50
2022-11-04T05:35:36.987Z,18.88
2022-11-04T05:38:05.305Z,14.20
2022-11-04T05:40:36.012Z,18.35
2022-11-04T05:43:04.447Z,17.90
2022-11-04T05:45:32.783Z,16.25
2022-11-04T05:48:02.210Z,20.25
2022-11-04T05:50:32.035Z,22.80
2022-11-04T05:53:03.163Z,25.25
2022-11-04T05:55:31.380Z,26.38
2022-11-04T05:57:59.772Z,26.42
2022-11-04T06:00:28.845Z,24.52
2022-11-04T06:02:58.400Z,27.45
2022-11-04T06:05:27.971Z,26.25
2022-11-04T06:07:57.034Z,28.08
2022-11-04T06:10:26.745Z,27.88
2022-11-04T06:12:55.001Z,18.23
2022-11-04T06:15:24.436Z,18.40
2022-11-04T06:17:52.776Z,16.15
2022-11-04T06:20:20.985Z,19.75
2022-11-04T06:22:49.292Z,14.52
2022-11-04T06:25:17.694Z,12.68
2022-11-04T06:27:48.533Z,13.25
2022-11-04T06:30:17.146Z,16.35
2022-11-04T06:32:45.472Z,11.73
2022-11-04T06:35:13.705Z,12.95
2022-11-04T06:37:42.060Z,10.82
2022-11-04T06:40:11.139Z,11.18
2022-11-04T06:42:39.674Z,14.02
2022-11-04T06:45:11.906Z,15.90
2022-11-04T06:47:40.319Z,17.88
2022-11-04T06:50:09.260Z,15.13
2022-11-04T06:52:42.139Z,20.02
2022-11-04T06:55:11.814Z,15.30
2022-11-04T06:57:40.097Z,11.43
2022-11-04T07:00:11.945Z,15.32
2022-11-04T07:02:40.269Z,22.67
2022-11-04T07:05:09.461Z,16.13
2022-11-04T07:07:37.902Z,20.08
2022-11-04T07:10:07.092Z,20.77
2022-11-04T07:12:35.411Z,25.40
2022-11-04T07:15:03.758Z,23.48
2022-11-04T07:17:33.459Z,14.20
2022-11-04T07:20:01.717Z,27.00
2022-11-04T07:22:30.186Z,48.17
2022-11-04T07:24:58.429Z,37.40
2022-11-04T07:27:26.628Z,18.90
2022-11-04T07:29:55.035Z,20.17
2022-11-04T07:32:23.277Z,13.27
2022-11-04T07:34:52.925Z,12.77
2022-11-04T07:37:21.267Z,18.60
2022-11-04T07:39:49.550Z,11.80
2022-11-04T07:42:18.006Z,22.48
2022-11-04T07:44:46.257Z,16.00
2022-11-04T07:47:14.618Z,15.30
2022-11-04T07:49:43.025Z,11.93
2022-11-04T07:52:12.763Z,14.85
2022-11-04T07:54:41.059Z,15.07
2022-11-04T07:57:09.628Z,16.27
2022-11-04T07:59:37.875Z,16.88
2022-11-04T08:02:06.521Z,14.55
2022-11-04T08:04:34.934Z,13.93
2022-11-04T08:07:03.400Z,15.38
2022-11-04T08:09:33.098Z,15.55
2022-11-04T08:12:01.429Z,16.20
2022-11-04T08:14:31.055Z,23.95
2022-11-04T08:17:00.097Z,21.48
2022-11-04T08:19:28.491Z,20.35
2022-11-04T08:21:56.900Z,23.25
2022-11-04T08:24:25.298Z,33.47
2022-11-04T08:26:54.921Z,25.40
2022-11-04T08:29:23.761Z,24.67
2022-11-04T08:31:52.078Z,21.38
2022-11-04T08:34:21.369Z,20.50
2022-11-04T08:36:49.792Z,15.85
2022-11-04T08:39:18.063Z,18.40
2022-11-04T08:41:46.756Z,17.05
2022-11-04T08:44:16.831Z,17.00
2022-11-04T08:46:46.240Z,13.25
2022-11-04T08:49:20.651Z,20.85
2022-11-04T08:51:56.481Z,17.08
2022-11-04T08:54:24.992Z,16.60
2022-11-04T08:56:53.823Z,16.10
2022-11-04T08:59:25.255Z,15.95
2022-11-04T09:01:53.673Z,17.88
2022-11-04T09:04:22.293Z,16.00
2022-11-04T09:06:51.156Z,15.15
2022-11-04T09:09:20.153Z,14.90
2022-11-04T09:11:48.644Z,14.75
2022-11-04T09:14:17.847Z,13.02
2022-11-04T09:16:47.700Z,14.75
2022-11-04T09:19:16.250Z,12.52
2022-11-04T09:24:12.956Z,13.82
2022-11-04T09:26:42.295Z,11.95
2022-11-04T09:29:10.675Z,11.52
2022-11-04T09:31:39.234Z,10.10
2022-11-04T09:34:09.062Z,8.48
2022-11-04T09:36:37.326Z,5.43
2022-11-04T09:39:06.343Z,11.50
2022-11-04T09:42:03.305Z,6.15
2022-11-04T09:45:07.024Z,12.50
2022-11-04T09:47:31.531Z,13.02
2022-11-04T09:50:02.398Z,5.60
2022-11-04T09:52:36.129Z,4.25
2022-11-04T09:55:08.511Z,7.95
2022-11-04T09:57:36.819Z,3.72
2022-11-04T10:00:07.032Z,3.15
2022-11-04T10:02:46.260Z,6.43
2022-11-04T10:05:24.373Z,7.55
2022-11-04T10:08:09.371Z,5.63
2022-11-04T10:10:46.037Z,6.85
2022-11-04T10:13:26.379Z,6.82
2022-11-04T10:16:10.881Z,7.57
2022-11-04T10:18:54.389Z,8.20
2022-11-04T10:21:35.422Z,6.70
2022-11-04T10:24:19.536Z,5.85
2022-11-04T10:26:53.790Z,4.25
2022-11-04T10:29:32.237Z,4.30
2022-11-04T10:32:03.168Z,5.35
2022-11-04T10:34:38.747Z,4.30
2022-11-04T10:37:11.809Z,8.80
2022-11-04T10:39:45.055Z,4.50
2022-11-04T10:42:15.432Z,3.45
2022-11-04T10:44:44.324Z,3.83
2022-11-04T10:47:22.400Z,4.25
2022-11-04T10:50:29.899Z,2.05
2022-11-04T10:53:12.174Z,6.13
2022-11-04T10:55:47.071Z,2.05
2022-11-04T10:58:23.016Z,5.78
2022-11-04T11:00:52.413Z,3.33
2022-11-04T11:03:30.886Z,1.65
2022-11-04T11:06:16.510Z,2.45
2022-11-04T11:08:47.343Z,2.60
2022-11-04T11:11:16.694Z,4.78
2022-11-04T11:13:47.338Z,1.83
2022-11-04T11:16:20.763Z,3.60
2022-11-04T11:19:17.119Z,2.45
2022-11-04T11:21:45.891Z,2.15
2022-11-04T11:24:19.883Z,1.65
2022-11-04T11:26:50.601Z,3.20
2022-11-04T11:29:23.592Z,3.50
2022-11-04T11:31:54.005Z,2.38
2022-11-04T11:34:27.356Z,5.20
2022-11-04T11:36:57.676Z,1.73
2022-11-04T11:39:30.021Z,2.33
2022-11-04T11:42:01.370Z,3.72
2022-11-04T11:44:34.236Z,3.30
2022-11-04T11:47:04.445Z,3.45
2022-11-04T11:49:36.000Z,4.82
2022-11-04T11:52:38.442Z,5.03
2022-11-04T11:55:15.564Z,1.40
2022-11-04T12:00:49.262Z,1.17
2022-11-04T12:03:26.877Z,4.88
2022-11-04T12:11:59.510Z,2.67
2022-11-04T12:14:38.132Z,3.33
2022-11-04T12:17:18.212Z,0.77
2022-11-04T12:19:57.830Z,0.60
2022-11-04T12:22:36.386Z,1.17
2022-11-04T12:25:14.360Z,0.30
2022-11-04T12:27:52.617Z,0.15
2022-11-04T12:30:31.191Z,0.10
2022-11-04T12:33:18.867Z,2.33
2022-11-04T12:35:58.646Z,1.30
2022-11-04T12:38:43.112Z,3.50
2022-11-04T12:44:23.161Z,0.38
2022-11-04T12:46:58.727Z,4.20
2022-11-04T12:50:13.694Z,3.50
2022-11-04T12:53:00.511Z,2.33
2022-11-04T12:55:43.638Z,0.98
2022-11-04T12:58:28.820Z,1.67
2022-11-04T13:01:02.748Z,1.23
2022-11-04T13:03:35.339Z,1.70
2022-11-04T13:06:06.976Z,1.70
2022-11-04T13:08:41.628Z,0.68
2022-11-04T13:11:23.689Z,0.50
2022-11-04T13:14:02.036Z,0.10
2022-11-04T13:16:32.929Z,2.92
2022-11-04T13:19:02.357Z,3.45
2022-11-04T13:21:37.378Z,1.85
2022-11-04T13:24:15.322Z,1.65
2022-11-04T13:26:43.571Z,4.95
2022-11-04T13:29:15.200Z,0.68
2022-11-04T13:31:54.201Z,1.85
2022-11-04T13:34:33.234Z,1.90
2022-11-04T13:37:14.023Z,0.30
2022-11-04T13:39:47.633Z,0.32
2022-11-04T13:42:37.232Z,1.17
2022-11-04T13:45:12.625Z,0.90
2022-11-04T13:47:48.652Z,1.80
2022-11-04T13:50:38.403Z,3.97
2022-11-04T13:53:10.073Z,3.35
2022-11-04T13:55:50.071Z,0.32
2022-11-04T13:58:26.377Z,3.72
2022-11-04T14:01:12.802Z,2.90
2022-11-04T14:03:53.055Z,1.35
2022-11-04T14:06:49.158Z,3.20
2022-11-04T14:09:59.601Z,5.30
2022-11-04T14:12:36.933Z,1.52
2022-11-04T14:15:41.809Z,3.53
2022-11-04T14:18:29.691Z,5.00
2022-11-04T14:21:09.477Z,2.33
2022-11-04T14:23:40.191Z,1.48
2022-11-04T14:26:11.011Z,2.17
2022-11-04T14:28:42.731Z,4.15
2022-11-04T14:31:17.443Z,1.15
2022-11-04T14:33:54.206Z,2.17
2022-11-04T14:36:34.594Z,0.82
2022-11-04T14:39:07.105Z,0.47
2022-11-04T14:42:00.068Z,5.15
2022-11-04T14:44:37.588Z,4.78
2022-11-04T14:47:21.488Z,0.85
2022-11-04T14:49:52.242Z,0.20
2022-11-04T14:52:28.931Z,2.70
2022-11-04T14:55:03.247Z,2.83
2022-11-04T14:57:37.265Z,3.65
2022-11-04T15:00:35.485Z,1.70
2022-11-04T15:03:10.467Z,4.20
2022-11-04T15:05:50.726Z,4.38
2022-11-04T15:08:38.069Z,4.28
2022-11-04T15:11:17.267Z,3.30
2022-11-04T15:13:48.372Z,1.75
2022-11-04T15:16:20.017Z,2.33
2022-11-04T15:18:49.031Z,1.70
2022-11-04T15:21:17.494Z,1.10
2022-11-04T15:23:50.233Z,2.38
2022-11-04T15:26:29.333Z,0.52
2022-11-04T15:29:00.076Z,4.57
2022-11-04T15:31:30.760Z,6.72
2022-11-04T15:34:01.121Z,0.77
2022-11-04T15:36:32.889Z,2.15
2022-11-04T15:39:09.058Z,3.60
2022-11-04T15:41:58.107Z,1.45
2022-11-04T15:44:28.891Z,1.65
2022-11-04T15:46:59.734Z,3.72
2022-11-04T15:49:29.785Z,2.25
2022-11-04T15:52:01.802Z,5.25
2022-11-04T15:54:35.984Z,1.67
2022-11-04T15:57:06.903Z,6.18
2022-11-04T15:59:38.492Z,9.38
2022-11-04T16:02:16.664Z,22.73
2022-11-04T16:04:49.105Z,13.30
2022-11-04T16:07:24.792Z,22.13
2022-11-04T16:09:56.287Z,26.50
2022-11-04T16:12:30.858Z,29.77
2022-11-04T16:15:00.196Z,15.63
2022-11-04T16:17:30.411Z,11.20
2022-11-04T16:20:01.757Z,18.00
2022-11-04T16:22:32.702Z,19.92
2022-11-04T16:25:05.856Z,15.73
2022-11-04T16:27:36.459Z,21.25
2022-11-04T16:30:10.835Z,19.92
2022-11-04T16:32:44.173Z,18.02
2022-11-04T16:35:18.537Z,11.70
2022-11-04T16:37:47.646Z,16.50
2022-11-04T16:40:18.061Z,18.38
2022-11-04T16:42:47.808Z,14.80
2022-11-04T16:45:25.297Z,13.20
2022-11-04T16:47:54.633Z,13.73
2022-11-04T16:50:24.690Z,11.65
2022-11-04T16:52:53.419Z,20.63
2022-11-04T16:55:24.365Z,14.23
2022-11-04T16:57:58.935Z,19.23
2022-11-04T17:00:28.975Z,16.23
2022-11-04T17:02:57.287Z,18.83
2022-11-04T17:05:25.584Z,16.10
2022-11-04T17:07:57.614Z,19.97
2022-11-04T17:10:35.271Z,19.63
2022-11-04T17:13:03.520Z,30.40
2022-11-04T17:15:31.940Z,33.27
2022-11-04T17:18:00.301Z,42.63
2022-11-04T17:20:29.929Z,36.60
2022-11-04T17:22:58.352Z,33.73
2022-11-04T17:25:28.821Z,33.37
2022-11-04T17:27:58.493Z,43.77
2022-11-04T17:30:26.977Z,44.03
2022-11-04T17:32:55.315Z,37.33
2022-11-04T17:35:23.795Z,44.17
2022-11-04T17:37:53.864Z,57.80
2022-11-04T17:40:23.908Z,56.33
2022-11-04T17:43:24.185Z,47.13
2022-11-04T17:46:13.846Z,56.83
2022-11-04T17:48:42.158Z,50.73
2022-11-04T17:51:10.729Z,51.27
2022-11-04T17:53:41.233Z,43.03
2022-11-04T17:56:15.599Z,44.60
2022-11-04T17:58:43.946Z,50.07
2022-11-04T18:01:15.946Z,67.80
2022-11-04T18:03:44.526Z,69.93
2022-11-04T18:06:12.987Z,37.37
2022-11-04T18:08:41.571Z,35.13
2022-11-04T18:11:12.424Z,32.27
2022-11-04T18:13:42.918Z,32.33
2022-11-04T18:16:11.593Z,38.80
2022-11-04T18:18:41.805Z,32.40
2022-11-04T18:21:10.882Z,36.67
2022-11-04T18:23:39.143Z,28.73
2022-11-04T18:26:09.983Z,28.80
2022-11-04T18:28:38.544Z,37.50
2022-11-04T18:31:09.231Z,30.53
2022-11-04T18:33:37.978Z,32.20
2022-11-04T18:36:11.357Z,27.10
2022-11-04T18:38:42.698Z,33.97
2022-11-04T18:41:11.283Z,28.03
2022-11-04T18:43:40.346Z,26.87
2022-11-04T18:46:10.081Z,30.03
2022-11-04T18:48:41.080Z,32.63
2022-11-04T18:51:13.134Z,27.13
2022-11-04T18:53:43.776Z,22.43
2022-11-04T18:56:16.770Z,27.63
2022-11-04T18:58:46.085Z,23.47
2022-11-04T19:01:19.280Z,28.00
2022-11-04T19:03:48.464Z,37.47
2022-11-04T19:06:20.534Z,28.07
2022-11-04T19:08:50.569Z,31.40
2022-11-04T19:11:21.272Z,28.77
2022-11-04T19:13:52.867Z,22.53
2022-11-04T19:16:21.613Z,18.97
2022-11-04T19:18:50.890Z,18.93
2022-11-04T19:21:22.036Z,20.93
2022-11-04T19:23:51.688Z,19.47
2022-11-04T19:26:22.653Z,22.37
2022-11-04T19:28:51.763Z,17.30
2022-11-04T19:31:22.575Z,15.53
2022-11-04T19:33:51.485Z,16.23
2022-11-04T19:36:23.690Z,16.80
2022-11-04T19:38:55.241Z,16.17
2022-11-04T19:41:41.996Z,8.20
2022-11-04T19:44:12.861Z,13.80
2022-11-04T19:46:41.574Z,10.52
2022-11-04T19:49:11.000Z,8.13
2022-11-04T19:51:41.389Z,10.70
2022-11-04T19:54:10.603Z,10.60
2022-11-04T19:56:39.850Z,4.82
2022-11-04T19:59:11.944Z,10.60
2022-11-04T20:01:40.355Z,11.38
2022-11-04T20:04:09.169Z,11.98
2022-11-04T20:06:37.969Z,11.43
2022-11-04T20:09:11.015Z,7.78
2022-11-04T20:12:00.308Z,11.82
2022-11-04T20:14:29.135Z,16.35
2022-11-04T20:16:57.441Z,40.07
2022-11-04T20:19:25.732Z,13.07
2022-11-04T20:21:54.170Z,13.83
2022-11-04T20:24:25.369Z,19.03
2022-11-04T20:26:53.698Z,20.52
2022-11-04T20:29:21.931Z,24.87
2022-11-04T20:31:50.241Z,16.02
2022-11-04T20:34:18.472Z,16.67
2022-11-04T20:36:46.739Z,16.70
2022-11-04T20:39:17.790Z,25.20
2022-11-04T20:41:47.871Z,86.97
2022-11-04T20:44:16.762Z,73.73
2022-11-04T20:46:45.706Z,43.22
2022-11-04T20:49:14.598Z,29.55
2022-11-04T20:51:48.669Z,32.30
2022-11-04T20:54:17.999Z,44.43
2022-11-04T20:56:47.694Z,39.00
2022-11-04T20:59:16.726Z,33.67
2022-11-04T21:01:46.810Z,25.33
2022-11-04T21:04:18.298Z,27.63
2022-11-04T21:06:47.787Z,32.00
2022-11-04T21:09:17.729Z,39.27
2022-11-04T21:11:48.033Z,46.83
2022-11-04T21:14:19.417Z,34.42
2022-11-04T21:16:48.561Z,26.90
2022-11-04T21:19:17.284Z,27.08
2022-11-04T21:21:47.107Z,28.33
2022-11-04T21:24:17.916Z,34.10
2022-11-04T21:26:47.917Z,43.13
2022-11-04T21:29:18.644Z,60.08
2022-11-04T21:31:48.133Z,40.43
2022-11-04T21:34:16.703Z,33.77
2022-11-04T21:36:45.694Z,38.23
2022-11-04T21:39:14.471Z,38.67
2022-11-04T21:41:42.830Z,36.70
2022-11-04T21:44:14.538Z,45.50
2022-11-04T21:46:43.763Z,43.80
2022-11-04T21:49:14.430Z,37.10
2022-11-04T21:51:42.695Z,37.30
2022-11-04T21:54:12.178Z,43.40
2022-11-04T21:56:40.429Z,46.80
2022-11-04T21:59:10.089Z,40.73
2022-11-04T22:01:41.573Z,41.93
2022-11-04T22:04:10.078Z,44.73
2022-11-04T22:06:38.338Z,42.40
2022-11-04T22:09:08.006Z,46.80
2022-11-04T22:11:39.046Z,40.77
2022-11-04T22:14:08.728Z,43.50
2022-11-04T22:16:39.218Z,44.20
2022-11-04T22:19:10.993Z,48.03
2022-11-04T22:21:41.184Z,45.13
2022-11-04T22:24:12.001Z,40.37
2022-11-04T22:26:43.467Z,54.03
2022-11-04T22:29:11.982Z,44.80
2022-11-04T22:31:42.829Z,44.23
2022-11-04T22:34:12.736Z,49.70
2022-11-04T22:36:41.010Z,46.50
2022-11-04T22:39:16.037Z,45.93
2022-11-04T22:41:47.292Z,49.67
2022-11-04T22:44:16.137Z,53.00
2022-11-04T22:46:44.558Z,56.57
2022-11-04T22:49:16.484Z,52.97
2022-11-04T22:51:44.714Z,60.83
2022-11-04T22:54:13.014Z,52.37
2022-11-04T22:56:41.371Z,50.40
2022-11-04T22:59:10.401Z,48.33
2022-11-04T23:01:39.286Z,51.00
2022-11-04T23:04:11.783Z,45.93
2022-11-04T23:06:42.053Z,43.23
2022-11-04T23:09:12.932Z,49.77
2022-11-04T23:11:58.525Z,48.00
2022-11-04T23:14:44.215Z,50.13
2022-11-04T23:17:34.215Z,49.93
2022-11-04T23:20:07.763Z,51.37
2022-11-04T23:22:54.771Z,50.87
2022-11-04T23:25:23.147Z,58.80
2022-11-04T23:28:11.363Z,54.40
2022-11-04T23:30:41.777Z,52.93
2022-11-04T23:33:12.104Z,62.27
2022-11-04T23:35:59.977Z,58.37
2022-11-04T23:38:30.514Z,62.40
2022-11-04T23:41:18.209Z,64.33
2022-11-04T23:43:46.700Z,70.80
2022-11-04T23:46:35.400Z,72.67
2022-11-04T23:49:23.645Z,75.97
2022-11-04T23:52:09.333Z,66.60
2022-11-04T23:54:56.520Z,74.53
2022-11-04T23:57:53.718Z,74.60
